Time;durP1;ratioP1;P1;durP2;ratioP2;P2;SDS_P1;SDS_P2;PMS_P1;PMS_P2;Temp;Humidity;BMP_temperature;BMP_pressure;BME280_temperature;BME280_humidity;BME280_pressure;Samples;Min_cycle;Max_cycle;Signal;HPM_P1;HPM_P2
2021/08/25 00:00:00;;;;;;;7.63;3.90;;;13.90;99.90;;;;;;5043997;28;20455;-79
2021/08/25 00:02:27;;;;;;;6.27;4.33;;;13.90;99.90;;;;;;5043644;28;20447;-79
2021/08/25 00:04:54;;;;;;;5.27;4.30;;;13.80;99.90;;;;;;5038472;28;20451;-80
2021/08/25 00:07:21;;;;;;;7.70;4.40;;;13.70;99.90;;;;;;5036596;28;20506;-79
2021/08/25 00:09:48;;;;;;;6.13;5.23;;;13.80;99.90;;;;;;5038367;28;20458;-78
2021/08/25 00:12:15;;;;;;;5.70;4.67;;;13.80;99.90;;;;;;5039495;28;20451;-79
2021/08/25 00:14:43;;;;;;;6.60;4.40;;;13.60;99.90;;;;;;5035460;28;20504;-79
2021/08/25 00:17:11;;;;;;;4.87;3.67;;;13.60;99.90;;;;;;5039578;28;20467;-78
2021/08/25 00:19:38;;;;;;;4.90;3.93;;;13.60;99.90;;;;;;5042581;28;20451;-77
2021/08/25 00:22:05;;;;;;;5.93;4.10;;;13.60;99.90;;;;;;5038664;28;20497;-79
2021/08/25 00:24:31;;;;;;;7.70;4.10;;;13.60;99.90;;;;;;5037597;28;20451;-78
2021/08/25 00:26:58;;;;;;;5.17;4.10;;;13.50;99.90;;;;;;5038536;28;20900;-78
2021/08/25 00:29:25;;;;;;;7.53;4.30;;;13.50;99.90;;;;;;5038871;28;20458;-78
2021/08/25 00:31:51;;;;;;;5.50;3.90;;;13.60;99.90;;;;;;5039398;28;20477;-79
2021/08/25 00:34:19;;;;;;;8.30;5.47;;;13.50;99.90;;;;;;5038359;28;20447;-78
2021/08/25 00:36:46;;;;;;;5.07;4.53;;;13.50;99.90;;;;;;5040034;28;20486;-77
2021/08/25 00:39:12;;;;;;;4.80;3.67;;;13.50;99.90;;;;;;5043992;28;20447;-80
2021/08/25 00:41:39;;;;;;;5.43;4.60;;;13.40;99.90;;;;;;5043107;28;20442;-78
2021/08/25 00:44:05;;;;;;;7.17;4.77;;;13.40;99.90;;;;;;5040315;28;20473;-78
2021/08/25 00:46:33;;;;;;;5.67;5.03;;;13.30;99.90;;;;;;5043246;28;20467;-78
2021/08/25 00:49:00;;;;;;;7.13;4.23;;;13.20;99.90;;;;;;5042978;28;20493;-78
2021/08/25 00:51:28;;;;;;;6.00;4.23;;;13.20;99.90;;;;;;5043976;28;20443;-78
2021/08/25 00:53:55;;;;;;;6.20;4.43;;;13.20;99.90;;;;;;5043331;28;20456;-79
2021/08/25 00:56:22;;;;;;;5.47;3.90;;;13.30;99.90;;;;;;5038399;28;21041;-79
2021/08/25 00:58:49;;;;;;;5.90;4.43;;;13.30;99.90;;;;;;5043777;28;20828;-78
2021/08/25 01:01:25;;;;;;;7.50;3.30;;;13.20;99.90;;;;;;5044104;28;20447;-79
2021/08/25 01:03:58;;;;;;;8.33;4.27;;;13.10;99.90;;;;;;5036920;28;20435;-78
2021/08/25 01:06:26;;;;;;;6.30;3.70;;;13.00;99.90;;;;;;5035463;28;20471;-80
2021/08/25 01:08:55;;;;;;;4.20;3.40;;;13.10;99.90;;;;;;5035855;28;20529;-78
2021/08/25 01:11:22;;;;;;;6.13;3.90;;;13.10;99.90;;;;;;5035224;28;20451;-78
2021/08/25 01:13:48;;;;;;;5.63;3.70;;;13.10;99.90;;;;;;5035579;28;20458;-79
2021/08/25 01:16:15;;;;;;;7.83;4.53;;;13.00;99.90;;;;;;5039565;28;20462;-78
2021/08/25 01:18:45;;;;;;;4.53;4.03;;;13.00;99.90;;;;;;5040434;28;20815;-78
2021/08/25 01:21:12;;;;;;;8.53;4.17;;;13.00;99.90;;;;;;5039333;28;20874;-79
2021/08/25 01:23:40;;;;;;;6.27;4.90;;;13.00;99.90;;;;;;5039287;28;20473;-79
2021/08/25 01:26:09;;;;;;;10.77;4.67;;;13.00;99.90;;;;;;5038118;28;20999;-79
2021/08/25 01:28:40;;;;;;;4.83;3.80;;;13.00;99.90;;;;;;5038722;28;20483;-79
2021/08/25 01:31:08;;;;;;;6.40;4.87;;;13.00;99.90;;;;;;5038996;28;20483;-79
2021/08/25 01:33:35;;;;;;;5.50;3.67;;;13.00;99.90;;;;;;5038348;28;20447;-79
2021/08/25 01:36:01;;;;;;;7.13;4.00;;;12.90;99.90;;;;;;5038434;28;20482;-79
2021/08/25 01:38:42;;;;;;;6.30;4.70;;;13.00;99.90;;;;;;5039974;28;20453;-78
2021/08/25 01:41:09;;;;;;;5.57;4.10;;;13.00;99.90;;;;;;5049001;28;20426;-77
2021/08/25 01:43:36;;;;;;;7.97;3.73;;;12.90;99.90;;;;;;5048916;28;20450;-78
2021/08/25 01:46:03;;;;;;;7.43;4.10;;;12.80;99.90;;;;;;5048534;28;20789;-78
2021/08/25 01:48:33;;;;;;;5.70;4.13;;;12.90;99.90;;;;;;5047173;28;20493;-80
2021/08/25 01:51:00;;;;;;;4.67;3.77;;;12.90;99.90;;;;;;5047536;28;20454;-80
2021/08/25 01:53:26;;;;;;;7.67;4.17;;;12.90;99.90;;;;;;5041900;28;20455;-80
2021/08/25 01:55:53;;;;;;;4.33;3.93;;;12.90;99.90;;;;;;5041177;28;20874;-79
2021/08/25 01:58:19;;;;;;;8.30;5.00;;;12.80;99.90;;;;;;5048023;28;20926;-77
2021/08/25 02:00:46;;;;;;;7.03;4.33;;;12.80;99.90;;;;;;5047866;28;21004;-78
2021/08/25 02:03:12;;;;;;;6.30;3.80;;;12.80;99.90;;;;;;5047052;28;20544;-78
2021/08/25 02:05:40;;;;;;;8.60;4.73;;;12.80;99.90;;;;;;5047561;28;20473;-78
2021/08/25 02:08:07;;;;;;;8.50;4.70;;;12.60;99.90;;;;;;5047360;28;20520;-78
2021/08/25 02:10:34;;;;;;;8.50;4.83;;;12.60;99.90;;;;;;5047135;28;20447;-78
2021/08/25 02:13:01;;;;;;;5.43;4.43;;;12.60;99.90;;;;;;5046423;28;20451;-78
2021/08/25 02:15:27;;;;;;;12.20;4.17;;;12.60;99.90;;;;;;5047140;28;20443;-78
2021/08/25 02:17:54;;;;;;;5.33;4.00;;;12.60;99.90;;;;;;5039178;28;20506;-80
2021/08/25 02:20:20;;;;;;;4.60;4.00;;;12.60;99.90;;;;;;5038369;28;20950;-79
2021/08/25 02:22:48;;;;;;;7.27;4.23;;;12.60;99.90;;;;;;5037996;28;20509;-80
2021/08/25 02:25:15;;;;;;;6.87;4.10;;;12.60;99.90;;;;;;5037498;28;20446;-79
2021/08/25 02:27:41;;;;;;;7.00;4.97;;;12.60;99.90;;;;;;5037057;28;20483;-80
2021/08/25 02:30:09;;;;;;;7.03;4.03;;;12.70;99.90;;;;;;5043011;28;20458;-79
2021/08/25 02:32:35;;;;;;;6.30;4.20;;;12.60;99.90;;;;;;5045936;28;20504;-77
2021/08/25 02:35:02;;;;;;;6.90;4.70;;;12.70;99.90;;;;;;5043555;28;20447;-79
2021/08/25 02:37:29;;;;;;;9.00;4.60;;;12.60;99.90;;;;;;5037832;28;20497;-78
2021/08/25 02:39:56;;;;;;;4.97;4.20;;;12.60;99.90;;;;;;5037257;28;20481;-79
2021/08/25 02:42:23;;;;;;;4.67;4.10;;;12.50;99.90;;;;;;5036543;28;20443;-79
2021/08/25 02:44:50;;;;;;;6.97;4.80;;;12.50;99.90;;;;;;5036617;28;20493;-78
2021/08/25 02:47:16;;;;;;;7.90;4.00;;;12.40;99.90;;;;;;5036873;28;20502;-78
2021/08/25 02:49:43;;;;;;;7.00;4.50;;;12.40;99.90;;;;;;5037303;28;20447;-79
2021/08/25 02:52:09;;;;;;;7.57;4.73;;;12.30;99.90;;;;;;5036566;28;21015;-80
2021/08/25 02:54:36;;;;;;;6.27;4.30;;;12.40;99.90;;;;;;5036992;28;20482;-79
2021/08/25 02:57:04;;;;;;;6.90;4.27;;;12.30;99.90;;;;;;5036678;28;20498;-79
2021/08/25 02:59:31;;;;;;;8.60;4.73;;;12.30;99.90;;;;;;5037343;28;20504;-79
2021/08/25 03:01:57;;;;;;;5.77;4.50;;;12.30;99.90;;;;;;5038353;28;20451;-79
2021/08/25 03:04:24;;;;;;;5.60;4.63;;;12.20;99.90;;;;;;5036471;28;20481;-79
2021/08/25 03:06:51;;;;;;;6.37;3.97;;;12.30;99.90;;;;;;5036320;28;20474;-78
2021/08/25 03:09:17;;;;;;;6.37;5.03;;;12.40;99.90;;;;;;5036104;28;20499;-80
2021/08/25 03:11:44;;;;;;;6.80;4.23;;;12.40;99.90;;;;;;5036240;28;20478;-79
2021/08/25 03:14:12;;;;;;;5.70;3.60;;;12.30;99.90;;;;;;5039762;28;20454;-77
2021/08/25 03:16:38;;;;;;;7.83;4.33;;;12.30;99.90;;;;;;5045249;28;20885;-78
2021/08/25 03:19:05;;;;;;;6.30;4.53;;;12.20;99.90;;;;;;5049363;28;20439;-78
2021/08/25 03:21:32;;;;;;;8.90;4.27;;;12.10;99.90;;;;;;5038390;28;20451;-80
2021/08/25 03:23:58;;;;;;;6.97;4.37;;;12.20;99.90;;;;;;5037626;28;21008;-79
2021/08/25 03:26:25;;;;;;;6.83;4.40;;;12.10;99.90;;;;;;5038590;28;20530;-79
2021/08/25 03:28:52;;;;;;;8.73;4.80;;;12.10;99.90;;;;;;5037835;28;20498;-79
2021/08/25 03:31:19;;;;;;;9.30;5.30;;;12.20;99.90;;;;;;5037496;28;20491;-80
2021/08/25 03:33:46;;;;;;;4.53;4.13;;;12.20;99.90;;;;;;5038411;28;20447;-78
2021/08/25 03:38:45;;;;;;;5.73;4.63;;;11.90;99.90;;;;;;4975772;28;20485;-78
2021/08/25 03:41:11;;;;;;;6.63;4.30;;;11.90;99.90;;;;;;4977815;28;20454;-79
2021/08/25 03:43:38;;;;;;;7.57;4.53;;;12.00;99.90;;;;;;4977128;28;20449;-79
2021/08/25 03:46:04;;;;;;;7.07;5.53;;;12.10;99.90;;;;;;4976635;28;20574;-79
2021/08/25 03:48:33;;;;;;;7.60;4.33;;;12.10;99.90;;;;;;4976655;28;20839;-79
2021/08/25 03:51:00;;;;;;;5.03;4.43;;;12.00;99.90;;;;;;4976119;28;20461;-79
2021/08/25 03:53:26;;;;;;;8.40;5.03;;;12.00;99.90;;;;;;4975644;28;20458;-77
2021/08/25 03:55:53;;;;;;;7.30;4.10;;;11.90;99.90;;;;;;4975717;28;20449;-78
2021/08/25 03:58:19;;;;;;;6.83;4.23;;;12.00;99.90;;;;;;4980759;28;20919;-77
2021/08/25 04:00:46;;;;;;;8.03;4.77;;;11.90;99.90;;;;;;4977107;28;20874;-78
2021/08/25 04:03:12;;;;;;;5.33;3.90;;;11.80;99.90;;;;;;4987956;28;20438;-77
2021/08/25 04:05:40;;;;;;;10.30;6.10;;;11.80;99.90;;;;;;4992166;28;20560;-78
2021/08/25 04:08:07;;;;;;;6.00;4.53;;;11.90;99.90;;;;;;4987456;28;20502;-78
2021/08/25 04:10:33;;;;;;;9.73;4.60;;;11.90;99.90;;;;;;4976325;28;20490;-77
2021/08/25 04:13:00;;;;;;;9.50;5.40;;;12.00;99.90;;;;;;4976273;28;20449;-78
2021/08/25 04:15:26;;;;;;;5.50;4.50;;;12.00;99.90;;;;;;4978482;28;20480;-77
2021/08/25 04:17:53;;;;;;;8.37;5.00;;;11.90;99.90;;;;;;4980084;28;20466;-77
2021/08/25 04:20:19;;;;;;;10.03;4.83;;;12.30;99.90;;;;;;4984474;28;20925;-78
2021/08/25 04:22:47;;;;;;;6.03;4.40;;;12.00;99.90;;;;;;4982775;28;20888;-77
2021/08/25 04:25:14;;;;;;;8.30;5.63;;;11.90;99.90;;;;;;4981837;28;20450;-77
2021/08/25 04:27:41;;;;;;;5.90;4.63;;;12.00;99.90;;;;;;4983831;28;20524;-77
2021/08/25 04:30:08;;;;;;;9.40;5.40;;;12.00;99.90;;;;;;4984209;28;20473;-77
2021/08/25 04:32:35;;;;;;;6.80;4.73;;;12.00;99.90;;;;;;4984921;28;20446;-77
2021/08/25 04:35:01;;;;;;;7.40;4.60;;;12.00;99.90;;;;;;4983056;28;20454;-78
2021/08/25 04:37:28;;;;;;;9.23;4.97;;;11.90;99.90;;;;;;4984601;28;20485;-78
2021/08/25 04:39:56;;;;;;;9.10;4.73;;;11.80;99.90;;;;;;4982927;28;20945;-78
2021/08/25 04:42:22;;;;;;;7.27;4.70;;;11.90;99.90;;;;;;4986419;28;20465;-77
2021/08/25 04:44:49;;;;;;;10.13;5.50;;;11.90;99.90;;;;;;4987331;28;21007;-78
2021/08/25 04:47:15;;;;;;;10.90;5.40;;;12.00;99.90;;;;;;4986928;28;20468;-78
2021/08/25 04:49:42;;;;;;;7.10;4.67;;;12.10;99.90;;;;;;4986323;28;20792;-79
2021/08/25 04:52:09;;;;;;;5.30;4.77;;;12.10;99.90;;;;;;4987212;28;20449;-78
2021/08/25 04:54:35;;;;;;;5.97;4.97;;;12.10;99.90;;;;;;4984281;28;20449;-78
2021/08/25 04:57:04;;;;;;;7.90;5.10;;;12.20;99.90;;;;;;4981316;28;20466;-78
2021/08/25 04:59:30;;;;;;;6.13;5.03;;;12.20;99.90;;;;;;4980632;28;20987;-78
2021/08/25 05:01:57;;;;;;;10.40;4.77;;;12.30;99.90;;;;;;4979928;28;20972;-79
2021/08/25 05:04:23;;;;;;;6.40;4.70;;;12.30;99.90;;;;;;4980037;28;20487;-79
2021/08/25 05:06:50;;;;;;;14.80;5.80;;;12.30;99.90;;;;;;4980258;28;20501;-78
2021/08/25 05:09:17;;;;;;;7.47;4.60;;;12.40;99.90;;;;;;4979363;28;20491;-78
2021/08/25 05:11:43;;;;;;;7.50;4.63;;;12.40;99.90;;;;;;4979832;28;20456;-79
2021/08/25 05:14:11;;;;;;;7.80;5.23;;;12.40;99.90;;;;;;4979112;28;20450;-79
2021/08/25 05:16:38;;;;;;;10.43;6.47;;;12.50;99.90;;;;;;4979159;28;20469;-78
2021/08/25 05:19:04;;;;;;;9.33;7.23;;;12.60;99.90;;;;;;4980248;28;20464;-79
2021/08/25 05:21:31;;;;;;;9.83;5.83;;;12.60;99.90;;;;;;4980814;28;20446;-79
2021/08/25 05:24:01;;;;;;;7.57;6.30;;;12.60;99.90;;;;;;4980792;28;20445;-78
2021/08/25 05:29:08;;;;;;;10.80;6.90;;;12.70;99.90;;;;;;4901787;28;20580;-79
2021/08/25 05:31:36;;;;;;;11.13;6.80;;;12.80;99.90;;;;;;4980795;28;20512;-78
2021/08/25 05:34:03;;;;;;;10.80;5.77;;;12.80;99.90;;;;;;4980541;28;20512;-79
2021/08/25 05:36:31;;;;;;;9.90;6.50;;;12.80;99.90;;;;;;4978584;28;20473;-79
2021/08/25 05:38:58;;;;;;;11.20;6.70;;;12.90;99.90;;;;;;4979502;28;20481;-79
2021/08/25 05:41:24;;;;;;;13.67;8.80;;;12.90;99.90;;;;;;4978603;28;20864;-79
2021/08/25 05:43:51;;;;;;;10.47;8.20;;;13.00;99.90;;;;;;4978269;28;20445;-78
2021/08/25 05:46:17;;;;;;;14.33;8.70;;;13.10;99.90;;;;;;4978051;28;20512;-79
2021/08/25 05:48:45;;;;;;;9.30;6.97;;;13.10;99.90;;;;;;4978071;28;20866;-79
2021/08/25 05:51:12;;;;;;;13.67;7.90;;;13.20;99.90;;;;;;4977802;28;20540;-79
2021/08/25 05:53:38;;;;;;;8.23;6.03;;;13.20;99.90;;;;;;4978138;28;20485;-79
2021/08/25 05:56:05;;;;;;;6.83;4.87;;;13.30;99.90;;;;;;4978760;28;20453;-78
2021/08/25 05:58:32;;;;;;;8.00;6.10;;;13.30;99.90;;;;;;4978384;28;20505;-78
2021/08/25 06:00:58;;;;;;;9.50;6.40;;;13.50;99.90;;;;;;4977584;28;20492;-79
2021/08/25 06:03:25;;;;;;;9.40;5.60;;;13.60;99.90;;;;;;4978349;28;20450;-78
2021/08/25 06:05:54;;;;;;;5.90;4.30;;;13.70;99.90;;;;;;4977746;28;20492;-79
2021/08/25 06:08:21;;;;;;;8.33;4.53;;;13.70;99.90;;;;;;4977941;28;20521;-78
2021/08/25 06:10:47;;;;;;;5.43;4.10;;;13.70;99.90;;;;;;4978115;28;20882;-78
2021/08/25 06:13:14;;;;;;;5.43;3.80;;;13.80;99.90;;;;;;4977528;28;20458;-78
2021/08/25 06:15:40;;;;;;;6.77;5.17;;;13.80;99.90;;;;;;4977694;28;20887;-79
2021/08/25 06:18:07;;;;;;;8.47;6.03;;;13.90;99.90;;;;;;4978553;28;20916;-79
2021/08/25 06:20:33;;;;;;;12.70;9.50;;;14.00;99.90;;;;;;4977267;28;20541;-78
2021/08/25 06:23:01;;;;;;;7.77;5.60;;;14.10;99.90;;;;;;4978167;28;20464;-79
2021/08/25 06:25:28;;;;;;;8.77;6.40;;;14.30;99.90;;;;;;4978409;28;20482;-78
2021/08/25 06:27:55;;;;;;;7.93;4.47;;;14.40;99.90;;;;;;4983976;28;20466;-78
2021/08/25 06:30:21;;;;;;;5.20;4.47;;;14.40;99.90;;;;;;4982875;28;21011;-79
2021/08/25 06:32:50;;;;;;;8.77;4.53;;;14.40;99.90;;;;;;4985565;28;20457;-77
2021/08/25 06:35:17;;;;;;;8.00;4.47;;;14.50;99.90;;;;;;4980211;28;20564;-79
2021/08/25 06:37:43;;;;;;;6.33;5.00;;;14.60;99.90;;;;;;4978010;28;20485;-79
2021/08/25 06:40:12;;;;;;;7.10;4.70;;;14.70;99.90;;;;;;4977708;28;20442;-78
2021/08/25 06:42:39;;;;;;;9.63;4.63;;;14.80;99.90;;;;;;4977436;28;20478;-79
2021/08/25 06:45:07;;;;;;;5.77;4.23;;;14.70;99.90;;;;;;4977004;28;20458;-79
2021/08/25 06:47:34;;;;;;;5.67;4.10;;;14.80;99.90;;;;;;4976987;28;21004;-79
2021/08/25 06:50:00;;;;;;;6.30;3.83;;;14.90;99.90;;;;;;4976977;28;20525;-79
2021/08/25 06:52:27;;;;;;;4.77;3.80;;;14.90;99.90;;;;;;4977309;28;20828;-79
2021/08/25 06:54:53;;;;;;;7.90;4.67;;;15.00;99.90;;;;;;4978001;28;20458;-79
2021/08/25 06:57:21;;;;;;;4.67;3.93;;;15.00;99.90;;;;;;4978185;28;20462;-79
2021/08/25 06:59:48;;;;;;;9.37;4.03;;;15.00;99.90;;;;;;4976877;28;20474;-78
2021/08/25 07:02:14;;;;;;;5.20;3.40;;;15.00;99.90;;;;;;4976506;28;20477;-78
2021/08/25 07:04:45;;;;;;;5.57;4.00;;;15.10;99.90;;;;;;4976682;28;20508;-78
2021/08/25 07:07:12;;;;;;;6.70;4.17;;;15.20;99.90;;;;;;4975949;28;20556;-79
2021/08/25 07:09:38;;;;;;;6.60;3.90;;;15.20;99.90;;;;;;4976410;28;20560;-78
2021/08/25 07:12:05;;;;;;;4.60;3.50;;;15.20;99.90;;;;;;4976197;28;20527;-78
2021/08/25 07:14:33;;;;;;;4.40;3.60;;;15.30;99.90;;;;;;4979850;28;20482;-79
2021/08/25 07:16:59;;;;;;;4.87;3.57;;;15.50;99.90;;;;;;4982618;28;20476;-78
2021/08/25 07:19:26;;;;;;;4.87;3.30;;;15.60;99.90;;;;;;4978472;28;20505;-78
2021/08/25 07:21:53;;;;;;;5.47;3.00;;;15.50;99.90;;;;;;4978552;28;20481;-78
2021/08/25 07:24:20;;;;;;;4.10;3.40;;;15.60;99.90;;;;;;4976952;28;20454;-78
2021/08/25 07:26:46;;;;;;;5.93;2.80;;;15.70;99.90;;;;;;4977795;28;20502;-78
2021/08/25 07:29:13;;;;;;;6.53;3.80;;;15.80;99.90;;;;;;4977290;28;20543;-78
2021/08/25 07:31:41;;;;;;;4.73;2.67;;;15.80;99.90;;;;;;4976036;28;20492;-78
2021/08/25 07:34:07;;;;;;;3.20;2.90;;;15.80;99.90;;;;;;4977184;28;20568;-79
2021/08/25 07:36:34;;;;;;;5.10;2.30;;;15.80;99.90;;;;;;4978129;28;20976;-79
2021/08/25 07:39:00;;;;;;;3.87;3.20;;;15.90;99.90;;;;;;4977640;28;20851;-78
2021/08/25 07:41:27;;;;;;;12.13;4.50;;;15.90;99.90;;;;;;4976906;28;20497;-78
2021/08/25 07:43:54;;;;;;;4.40;3.00;;;15.90;99.90;;;;;;4976899;28;20458;-78
2021/08/25 07:46:21;;;;;;;7.43;3.03;;;15.70;99.90;;;;;;4977130;28;20477;-78
2021/08/25 07:48:49;;;;;;;4.33;3.00;;;15.90;99.90;;;;;;4976106;28;20892;-78
2021/08/25 07:51:16;;;;;;;5.23;3.03;;;16.00;99.90;;;;;;4975996;28;20492;-79
2021/08/25 07:53:42;;;;;;;5.17;2.70;;;16.20;99.90;;;;;;4976215;28;20536;-80
2021/08/25 07:56:09;;;;;;;3.70;2.63;;;16.30;99.90;;;;;;4976467;28;20536;-79
2021/08/25 07:58:35;;;;;;;4.77;2.57;;;16.30;99.90;;;;;;4976720;28;20488;-81
2021/08/25 08:01:02;;;;;;;5.53;2.80;;;16.40;99.90;;;;;;4976443;28;20504;-77
2021/08/25 08:03:28;;;;;;;3.10;2.60;;;16.40;99.90;;;;;;4975207;28;20485;-77
2021/08/25 08:05:56;;;;;;;5.63;2.77;;;16.40;99.90;;;;;;4975666;28;20458;-79
2021/08/25 08:08:25;;;;;;;3.67;2.70;;;16.50;99.90;;;;;;4976142;28;20932;-79
2021/08/25 08:10:52;;;;;;;3.30;2.90;;;16.50;99.90;;;;;;4975275;28;20495;-78
2021/08/25 08:13:18;;;;;;;2.60;2.30;;;16.60;99.90;;;;;;4975891;28;20449;-78
2021/08/25 08:15:45;;;;;;;4.90;2.80;;;16.70;99.90;;;;;;4975810;28;20944;-78
2021/08/25 08:18:15;;;;;;;2.90;2.40;;;16.80;99.90;;;;;;4976138;28;20481;-78
2021/08/25 08:20:42;;;;;;;2.87;2.40;;;16.80;99.90;;;;;;4975827;28;20454;-78
2021/08/25 08:23:10;;;;;;;15.60;5.90;;;16.90;99.90;;;;;;4976155;28;20535;-78
2021/08/25 08:25:37;;;;;;;4.20;2.70;;;16.90;99.90;;;;;;4975843;28;20535;-78
2021/08/25 08:28:04;;;;;;;4.27;2.87;;;17.00;99.90;;;;;;4976386;28;20508;-78
2021/08/25 08:30:31;;;;;;;2.97;2.20;;;16.90;99.90;;;;;;4976156;28;20517;-78
2021/08/25 08:32:59;;;;;;;3.50;2.63;;;17.00;99.90;;;;;;4977229;28;20478;-79
2021/08/25 08:35:26;;;;;;;3.87;2.70;;;17.00;99.90;;;;;;4976511;28;20450;-79
2021/08/25 08:37:53;;;;;;;3.63;2.97;;;17.00;99.90;;;;;;4975910;28;20516;-79
2021/08/25 08:40:21;;;;;;;4.50;2.60;;;17.00;99.90;;;;;;4981855;28;20445;-78
2021/08/25 08:42:50;;;;;;;4.57;3.03;;;17.00;99.90;;;;;;4984176;28;20480;-78
2021/08/25 08:45:18;;;;;;;2.87;2.67;;;17.00;99.90;;;;;;4982973;28;20485;-78
2021/08/25 08:47:45;;;;;;;3.50;2.80;;;17.10;99.90;;;;;;4983277;28;20485;-78
2021/08/25 08:50:12;;;;;;;3.33;3.00;;;17.10;99.90;;;;;;4981695;28;20489;-79
2021/08/25 08:52:39;;;;;;;3.87;2.70;;;17.10;99.90;;;;;;4980836;28;20480;-79
2021/08/25 08:55:07;;;;;;;3.73;2.67;;;17.20;99.90;;;;;;4981788;28;20490;-78
2021/08/25 08:57:34;;;;;;;4.70;3.00;;;17.20;99.90;;;;;;4980646;28;20504;-78
2021/08/25 09:00:01;;;;;;;3.03;2.50;;;17.30;99.90;;;;;;4981149;28;20820;-78
2021/08/25 09:02:38;;;;;;;4.53;2.80;;;17.30;99.90;;;;;;4984442;28;20453;-78
2021/08/25 09:05:16;;;;;;;7.07;3.07;;;17.30;99.90;;;;;;4979915;28;20449;-79
2021/08/25 09:07:51;;;;;;;4.30;2.80;;;17.30;99.90;;;;;;4976278;28;20470;-79
2021/08/25 09:10:24;;;;;;;5.83;2.97;;;17.40;99.90;;;;;;4975152;28;20472;-78
2021/08/25 09:12:53;;;;;;;2.53;2.33;;;17.40;99.90;;;;;;4974772;28;21003;-79
2021/08/25 09:15:21;;;;;;;3.50;2.63;;;17.30;99.90;;;;;;4974946;28;20477;-77
2021/08/25 09:17:47;;;;;;;3.50;2.83;;;17.30;99.90;;;;;;4975704;28;20505;-78
2021/08/25 09:20:15;;;;;;;7.70;3.13;;;17.30;99.90;;;;;;4980216;28;20453;-79
2021/08/25 09:22:41;;;;;;;3.70;2.83;;;17.30;99.90;;;;;;4983054;28;20789;-79
2021/08/25 09:25:08;;;;;;;3.60;2.93;;;17.40;99.90;;;;;;4981435;28;20442;-79
2021/08/25 09:27:35;;;;;;;6.07;3.33;;;17.40;99.90;;;;;;4979598;28;20504;-79
2021/08/25 09:30:05;;;;;;;4.17;3.43;;;17.40;99.90;;;;;;4978461;28;20508;-81
2021/08/25 09:32:34;;;;;;;5.10;3.40;;;17.40;99.90;;;;;;4977587;28;20442;-79
2021/08/25 09:35:02;;;;;;;4.80;3.07;;;17.60;99.90;;;;;;4976946;28;20457;-79
2021/08/25 09:38:10;;;;;;;;;;;;;;;;;;;;;
2021/08/25 09:41:06;;;;;;;7.40;3.90;;;17.40;99.90;;;;;;5021619;28;20531;-79
2021/08/25 09:43:54;;;;;;;7.00;3.53;;;16.30;99.90;;;;;;5019282;28;20462;-81
2021/08/25 09:46:57;;;;;;;6.97;5.13;;;17.60;99.90;;;;;;5014526;28;20546;-79
2021/08/25 09:53:01;;;;;;;4.67;2.83;;;18.80;99.90;;;;;;4994573;28;20453;-81
2021/08/25 09:55:49;;;;;;;4.63;3.50;;;19.90;99.90;;;;;;4999185;28;20475;-81
2021/08/25 10:01:46;;;;;;;6.40;4.00;;;16.80;99.90;;;;;;4995205;28;20543;-80
2021/08/25 10:04:38;;;;;;;5.60;4.20;;;17.60;99.90;;;;;;4999220;28;20835;-80
2021/08/25 10:07:28;;;;;;;8.47;4.17;;;17.50;99.90;;;;;;4999791;28;20568;-80
2021/08/25 10:10:42;;;;;;;5.30;3.13;;;17.50;99.90;;;;;;5000570;28;20781;-79
2021/08/25 10:13:11;;;;;;;5.93;4.27;;;17.50;99.90;;;;;;4999795;28;20455;-80
2021/08/25 10:15:50;;;;;;;6.63;3.10;;;17.90;99.90;;;;;;5005462;28;20536;-79
2021/08/25 10:18:43;;;;;;;4.57;3.40;;;17.50;99.90;;;;;;5004650;28;20480;-79
2021/08/25 10:21:51;;;;;;;5.87;4.63;;;18.90;99.90;;;;;;5003182;28;20457;-78
2021/08/25 10:28:17;;;;;;;4.43;2.73;;;17.40;99.90;;;;;;4999401;28;20464;-80
2021/08/25 10:31:07;;;;;;;6.20;3.30;;;17.40;99.90;;;;;;4998519;28;20453;-80
2021/08/25 10:37:38;;;;;;;4.77;3.30;;;17.40;99.90;;;;;;4992914;28;20946;-80
2021/08/25 10:43:27;;;;;;;6.10;3.87;;;17.40;99.90;;;;;;4996844;28;20971;-80
2021/08/25 10:45:57;;;;;;;3.60;3.30;;;;;;;;;;4998171;28;20444;-81
2021/08/25 10:48:45;;;;;;;4.80;3.43;;;17.40;99.90;;;;;;4998352;28;20473;-81
2021/08/25 10:51:37;;;;;;;3.77;3.13;;;17.40;99.90;;;;;;4998285;28;20544;-80
2021/08/25 10:54:07;;;;;;;6.63;4.73;;;17.40;99.90;;;;;;4998424;28;20540;-80
2021/08/25 10:56:38;;;;;;;4.20;3.33;;;17.40;99.90;;;;;;4998621;28;20953;-79
2021/08/25 10:59:11;;;;;;;4.97;3.30;;;17.50;99.90;;;;;;4998969;28;20460;-80
2021/08/25 11:01:43;;;;;;;4.37;3.80;;;17.50;99.90;;;;;;4998597;28;20492;-80
2021/08/25 11:04:14;;;;;;;4.93;3.23;;;17.50;99.90;;;;;;4999512;28;20920;-80
2021/08/25 11:06:46;;;;;;;4.17;3.30;;;17.90;99.90;;;;;;4998711;28;20453;-80
2021/08/25 11:09:18;;;;;;;7.83;3.73;;;17.80;99.90;;;;;;4998234;28;20461;-80
2021/08/25 11:11:48;;;;;;;5.73;3.10;;;17.80;99.90;;;;;;4997670;28;20460;-80
2021/08/25 11:14:30;;;;;;;5.70;2.57;;;17.80;99.90;;;;;;4998743;28;20441;-80
2021/08/25 11:17:03;;;;;;;8.20;4.20;;;17.80;99.90;;;;;;4998084;28;20504;-80
2021/08/25 11:19:33;;;;;;;7.07;3.60;;;18.00;99.90;;;;;;4997611;28;20547;-80
2021/08/25 11:22:02;;;;;;;7.93;3.97;;;18.30;99.90;;;;;;4997489;28;20456;-80
2021/08/25 11:24:40;;;;;;;7.10;4.20;;;18.20;99.90;;;;;;4997802;28;20507;-80
2021/08/25 11:27:28;;;;;;;5.50;3.60;;;18.20;99.90;;;;;;4997928;28;20449;-80
2021/08/25 11:30:14;;;;;;;4.60;3.23;;;18.20;99.90;;;;;;5000041;28;20453;-80
2021/08/25 11:32:49;;;;;;;4.70;4.30;;;18.20;99.90;;;;;;4997458;28;20437;-80
2021/08/25 11:35:23;;;;;;;4.20;3.30;;;18.60;99.90;;;;;;4996716;28;20448;-80
2021/08/25 11:37:50;;;;;;;5.20;3.67;;;18.40;99.90;;;;;;4996253;28;20577;-80
2021/08/25 11:40:17;;;;;;;4.33;3.40;;;18.50;99.90;;;;;;4996808;28;20491;-81
2021/08/25 11:42:44;;;;;;;4.57;3.70;;;18.70;99.90;;;;;;4999583;28;20476;-80
2021/08/25 11:45:17;;;;;;;4.30;3.47;;;18.80;99.90;;;;;;5000728;28;20802;-80
2021/08/25 11:47:50;;;;;;;6.33;3.40;;;18.90;99.90;;;;;;5000762;28;20475;-80
2021/08/25 11:50:18;;;;;;;5.60;3.23;;;18.90;99.90;;;;;;4999405;28;20876;-79
2021/08/25 11:52:45;;;;;;;8.30;6.43;;;19.00;99.90;;;;;;4999906;28;20453;-79
2021/08/25 11:55:12;;;;;;;8.30;4.43;;;19.00;99.90;;;;;;5000368;28;20453;-80
2021/08/25 11:57:41;;;;;;;4.33;3.40;;;19.20;99.90;;;;;;5002604;28;20523;-78
2021/08/25 12:00:09;;;;;;;5.80;4.07;;;19.30;99.90;;;;;;5001433;28;20484;-78
2021/08/25 12:02:53;;;;;;;4.90;4.13;;;19.30;99.90;;;;;;5001594;28;20453;-78
2021/08/25 12:05:21;;;;;;;7.03;3.60;;;19.70;99.90;;;;;;5000224;28;20433;-78
2021/08/25 12:08:08;;;;;;;5.33;3.20;;;19.40;99.90;;;;;;5009565;28;20465;-78
2021/08/25 12:10:37;;;;;;;6.53;3.70;;;19.40;99.90;;;;;;5008373;28;20497;-78
2021/08/25 12:13:04;;;;;;;5.63;3.20;;;19.30;99.90;;;;;;5008442;28;20444;-78
2021/08/25 12:15:44;;;;;;;5.33;3.63;;;19.40;99.90;;;;;;5009022;28;20454;-79
2021/08/25 12:18:13;;;;;;;5.27;3.37;;;19.30;99.90;;;;;;5008730;28;20472;-79
2021/08/25 12:20:41;;;;;;;10.10;4.07;;;19.30;99.90;;;;;;5001968;28;20522;-79
2021/08/25 12:23:11;;;;;;;14.10;9.30;;;19.30;99.90;;;;;;5003489;28;20452;-80
2021/08/25 12:25:41;;;;;;;7.63;3.77;;;19.40;99.90;;;;;;5000338;28;20503;-80
2021/08/25 12:28:09;;;;;;;5.07;3.70;;;19.60;99.90;;;;;;5000322;28;20469;-79
2021/08/25 12:30:36;;;;;;;6.37;4.03;;;19.70;99.90;;;;;;4998159;28;20983;-80
2021/08/25 12:33:04;;;;;;;4.77;3.90;;;19.70;99.90;;;;;;4997402;28;20555;-81
2021/08/25 12:35:33;;;;;;;4.17;3.37;;;19.90;99.90;;;;;;4996575;28;20835;-80
2021/08/25 12:41:47;;;;;;;3.70;3.03;;;20.20;99.90;;;;;;5017998;28;20479;-79
2021/08/25 12:51:06;;;;;;;4.23;3.50;;;19.60;99.90;;;;;;5030019;28;20928;-80
2021/08/25 12:53:32;;;;;;;5.00;3.13;;;18.50;99.90;;;;;;5046094;22;20488;-79
2021/08/25 12:55:59;;;;;;;3.80;3.07;;;19.70;99.90;;;;;;5015897;28;20860;-79
2021/08/25 12:58:25;;;;;;;4.50;3.60;;;19.80;99.90;;;;;;5015621;28;20495;-79
2021/08/25 13:00:52;;;;;;;5.90;3.70;;;20.00;99.90;;;;;;5015925;28;20910;-79
2021/08/25 13:03:19;;;;;;;5.90;4.33;;;20.10;99.90;;;;;;5025947;28;20478;-79
2021/08/25 13:05:45;;;;;;;5.33;3.47;;;20.20;99.90;;;;;;5039793;28;20983;-78
2021/08/25 13:08:14;;;;;;;8.67;4.57;;;20.20;99.90;;;;;;5039662;28;20447;-79
2021/08/25 13:10:40;;;;;;;6.60;4.13;;;20.30;99.90;;;;;;5038632;28;20447;-79
2021/08/25 13:13:07;;;;;;;7.03;4.90;;;20.30;99.90;;;;;;5043608;28;20473;-80
2021/08/25 13:15:33;;;;;;;5.33;3.87;;;20.30;99.90;;;;;;5050094;28;20805;-79
2021/08/25 13:18:00;;;;;;;4.60;3.50;;;20.40;99.90;;;;;;5045341;28;20443;-78
2021/08/25 13:20:26;;;;;;;6.60;3.90;;;20.40;99.90;;;;;;5042062;28;20474;-79
2021/08/25 13:22:53;;;;;;;4.77;3.50;;;20.50;99.90;;;;;;5042956;28;21054;-79
2021/08/25 13:25:21;;;;;;;4.20;2.93;;;20.40;99.90;;;;;;5042101;28;20855;-78
2021/08/25 13:27:47;;;;;;;9.73;3.40;;;20.40;99.90;;;;;;5043672;28;20760;-77
2021/08/25 13:30:14;;;;;;;7.20;4.40;;;20.40;99.90;;;;;;5042397;28;20477;-79